METAR Data
IDs: Format: Raw Decoded Include TAF

Data at: 0925 UTC 07 Dec 2021

KTMB 070853Z 35003KT 10SM FG CLR 19/19 A3005 RMK AO2 SLP173 T01940189 58013
KTMB 070753Z 00000KT 10SM FG CLR 21/19 A3006 RMK AO2 SLP178 T02060194
KTMB 070653Z 00000KT 10SM FG CLR 21/19 A3007 RMK AO2 SLP183 T02060194
KTMB 070553Z 31004KT 10SM FG CLR 21/21 A3008 RMK AO2 SLP186 T02110206 10244 20206 58001
KTMB 070532Z 29006KT 3SM FG FEW002 21/20 A3008 RMK AO2 T02110200
KTMB 070525Z 28004KT 1 3/4SM FG FEW002 SCT030 21/20 A3009 RMK AO2 VIS 1V3 T02110200
KTMB 070518Z 27004KT 3/4SM FG FEW002 BKN030 21/21 A3009 RMK AO2 T02110206
KTMB 070507Z 27003KT 3/4SM FG SCT002 BKN029 22/21 A3009 RMK AO2 T02170206
KTMB 070453Z 24003KT 3/4SM FG BKN002 OVC029 21/20 A3009 RMK AO2 SLP188 T02110200 402780206
KTMB 070440Z 00000KT 3/4SM FG VV002 21/20 A3009 RMK AO2 T02110200
KTMB 070424Z 00000KT 1/2SM FG VV001 21/20 A3009 RMK AO2 T02060200
KTMB 070400Z 00000KT 1/2SM FG VV002 21/21 A3008 RMK AO2 T02110206
KTMB 070353Z 00000KT 1/2SM FG CLR 22/21 A3009 RMK AO2 SLP187 T02170206
KTMB 070318Z 00000KT 1/2SM FG CLR 22/21 A3009 RMK AO2 T02220211
KTMB 070253Z 00000KT 10SM CLR 22/21 A3009 RMK AO2 SLP187 T02170211 50006
KTMB 070232Z 27004KT 10SM CLR 22/21 A3009 RMK AO2 T02220211
KTMB 070218Z 27004KT 1 3/4SM BR CLR 22/21 A3008 RMK AO2 T02170206
KTMB 070153Z 00000KT 10SM SCT029 24/22 A3009 RMK AO2 SLP187 T02390222
KTMB 070125Z 18004KT 10SM BKN023 24/22 A3009 RMK AO2 T02390222
KTMB 070053Z 16004KT 10SM CLR 24/23 A3008 RMK AO2 SLP186 T02390228
KTMB 062353Z 14003KT 10SM SCT006 24/23 A3007 RMK AO2 SLP181 60009 T02440228 10278 20239 51009
KTMB 062348Z 13004KT 10SM SCT006 24/23 A3007 RMK AO2
KTMB 062253Z 10004KT 10SM CLR 24/22 A3006 RMK AO2 SLP177 T02440222
KTMB 062153Z 10003KT 10SM CLR 28/22 A3004 RMK AO2 SLP171 T02780222
KTMB 062053Z 00000KT 10SM FEW018 SCT023 BKN080 28/23 A3003 RMK AO2 SLP169 60009 T02780228 56004
KTMB 062019Z 00000KT 10SM BKN018 BKN070 OVC090 27/23 A3003 RMK AO2 T02670228
KTMB 061953Z 17004KT 10SM FEW016 OVC065 27/23 A3004 RMK AO2 LTG DSNT NE SLP171 T02670228
KTMB 061853Z 13004KT 10SM FEW023 BKN050 OVC065 26/22 A3005 RMK AO2 RAE47 SLP174 P0009 T02560217
KTMB 061838Z 23004KT 10SM -RA FEW009 BKN038 OVC070 24/22 A3006 RMK AO2 P0009 T02440217
KTMB 061800Z 23007G15KT 2SM RA BR BKN009 BKN019 OVC047 25/23 A3008 RMK AO2 LTG DSNT SE AND S P0002 T02500228
KTMB 061753Z 22007G15KT 1SM -RA BR BKN009 BKN019 OVC060 25/23 A3008 RMK AO2 LTG DSNT SE AND S RAB29 SLP184 P0003 60006 T02500228 10278 20228 56021
KTMB 061741Z 24008KT 1SM -RA BR BKN009 BKN019 OVC060 25/23 A3007 RMK AO2 LTG DSNT SE AND S RAB29 P0003 T02500228
KTMB 061731Z 19012G19KT 160V230 6SM RA FEW009 BKN019 OVC060 26/23 A3007 RMK AO2 LTG DSNT SE AND S RAB29 P0002 T02610228
KTMB 061653Z 15010G16KT 10SM SCT030 BKN046 OVC090 27/23 A3009 RMK AO2 LTG DSNT S RAE25 SLP189 P0003 T02720228
KTMB 061553Z 15007KT 10SM -RA FEW025 BKN070 OVC090 27/23 A3012 RMK AO2 RAB42 SLP199 P0000 T02670233
KTMB 061453Z VRB05KT 10SM SCT021 27/23 A3014 RMK AO2 SLP205 60000 T02670233 53012
KTMB 061353Z 00000KT 10SM FEW021 SCT027 26/23 A3013 RMK AO2 SLP202 T02560228
KTMB 061253Z 10SM FEW019 FEW027 SCT035 24/22 A3011 RMK AO2 RAE1157 SLP196 P0000 T02390222 $
KTMB 061206Z 10SM FEW016 SCT025 BKN055 23/22 A3011 RMK AO2 RAE1157 P0000 T02280217
KTMB 061153Z AUTO 10SM -RA FEW005 BKN025 OVC055 23/22 A3011 RMK AO2 RAE09B40 SLP194 P0001 60007 70007 T02280217 10233 20217 53010
KTMB 061138Z AUTO 29003KT 10SM FEW005 BKN015 OVC055 23/21 A3011 RMK AO2 RAE09 P0001 T02280211
KTMB 061127Z AUTO 00000KT 10SM BKN017 BKN028 OVC075 23/22 A3010 RMK AO2 RAE09 P0001 T02330222
KTMB 061053Z AUTO 00000KT 6SM RA BR SCT030 BKN041 OVC049 23/22 A3009 RMK AO2 SLP187 P0006 T02330217
KTMB 060953Z AUTO 00000KT 10SM -RA FEW026 FEW039 OVC048 22/21 A3008 RMK AO2 RAB42 SLP185 P0000 T02220206
KTMB 060853Z AUTO 00000KT 10SM BKN085 22/21 A3008 RMK AO2 SLP184 T02220206 56011
KTMB 060753Z AUTO 07003KT 10SM FEW046 OVC075 22/21 A3008 RMK AO2 SLP185 T02220206
KTMB 060653Z AUTO 00000KT 10SM SCT032 BKN044 OVC070 22/20 A3010 RMK AO2 SLP191 T02220200
KTMB 060553Z AUTO 00000KT 10SM SCT029 BKN037 OVC055 22/20 A3011 RMK AO2 SLP195 T02170200 10233 20206 56003
KTMB 060546Z AUTO 00000KT 10SM SCT028 BKN037 OVC055 22/20 A3011 RMK AO2 T02220200
KTMB 060513Z AUTO 00000KT 10SM BKN027 BKN037 OVC055 22/20 A3011 RMK AO2 T02170200
KTMB 060453Z AUTO 00000KT 10SM SCT025 BKN033 BKN060 21/19 A3011 RMK AO2 SLP196 T02110194 402890172
KTMB 060353Z 06003KT 10SM CLR 21/19 A3011 RMK AO2 SLP196 LAST T02060194
KTMB 060253Z 00000KT 10SM CLR 21/19 A3012 RMK AO2 SLP198 T02110194 51010
KTMB 060153Z 11003KT 10SM CLR 22/20 A3011 RMK AO2 SLP194 T02220200
KTMB 060053Z 10005KT 10SM CLR 21/19 A3010 RMK AO2 SLP192 T02110189
KTMB 052353Z 11005KT 10SM CLR 23/20 A3009 RMK AO2 SLP188 T02330200 10289 20233 53006
KTMB 052253Z 11006KT 10SM CLR 24/20 A3008 RMK AO2 SLP185 T02390200
KTMB 052153Z 11009KT 10SM CLR 26/20 A3007 RMK AO2 SLP182 T02560200